Terminal Aerodrome Forecast
Issued by NWS Shreveport, LA

Home | Current Version | Previous Version | Text Only | Print | Product List | Glossary On
Versions: 1 2 3 4 5 6 7 8 9 10 11 12 13 14 15 16 17 18 19 20 21
032
FTUS44 KSHV 220520
TAFLFK
TAF
KLFK 220520Z 2206/2306 28010G18KT P6SM VCSH BKN050 OVC100
      TEMPO 2206/2210 5SM -SHRA BR BKN040
     FM221200 24010KT P6SM SCT080 SCT250
     FM221600 25015G25KT P6SM SCT100 SCT250
     FM221800 28018G28KT P6SM SCT030 SCT250
     FM230000 31015G25KT P6SM SCT035=

USA.gov is the U.S. government's official web portal to all federal, state and local government web resources and services.